EGNR/CEG METAR and TAF weather

Enter ICAO airport designator
Station Type Date Time Source
EGNR METAR 2021/07/30 07:20 UTC NOAA

EGNR 300720Z 04009KT 8000 VCSH BKN006 13/12 Q1001


Station Type Date Time Source
EGNR Decoded METAR 2021/07/30 07:20 UTC NOAA

Hawarden, United Kingdom (EGNR) 53-10N 002-59W 0M
Jul 30, 2021 - 03:20 AM EDT / 2021.07.30 0720 UTC
Wind: from the NE (040 degrees) at 10 MPH (9 KT):0
Visibility: 4 mile(s):0
Sky conditions: mostly cloudy
Weather: showers in the vicinity
Temperature: 55 F (13 C)
Dew Point: 53 F (12 C)
Relative Humidity: 93%
Pressure (altimeter): 29.56 in. Hg (1001 hPa)
ob: EGNR 300720Z 04009KT 8000 VCSH BKN006 13/12 Q1001
cycle: 7

Station Type Date Time Source
EGNR TAF 2016/01/23 12:00 UTC NOAA

TAF EGNR 231059Z 2312/2319 15009KT 9999 FEW020
BECMG 2316/2319 BKN014
TEMPO 2317/2319 6000 RA BKN008

Example: see airport list